Time;durP1;ratioP1;P1;durP2;ratioP2;P2;SDS_P1;SDS_P2;PMS_P1;PMS_P2;Temp;Humidity;BMP_temperature;BMP_pressure;BME280_temperature;BME280_humidity;BME280_pressure;Samples;Min_cycle;Max_cycle;Signal;HPM_P1;HPM_P2
2023/08/10 00:00:19;;;;;;;0.50;0.50;;;;;;;13.95;100.00;97266.53;29395;261;63004;-56
2023/08/10 00:00:51;;;;;;;0.50;0.50;;;;;;;13.96;100.00;97264.59;29395;215;63009;-56
2023/08/10 00:01:22;;;;;;;0.50;0.50;;;;;;;13.98;100.00;97260.47;29395;312;63004;-56
2023/08/10 00:01:53;;;;;;;0.50;0.50;;;;;;;13.98;100.00;97255.00;29395;202;63008;-56
2023/08/10 00:02:25;;;;;;;0.50;0.50;;;;;;;13.97;100.00;97264.31;29395;202;63005;-55
2023/08/10 00:02:56;;;;;;;0.50;0.50;;;;;;;13.97;100.00;97258.03;29395;215;63009;-56
2023/08/10 00:03:28;;;;;;;0.40;0.40;;;;;;;13.96;100.00;97262.69;29394;269;64009;-56
2023/08/10 00:15:36;;;;;;;0.50;0.50;;;;;;;13.95;100.00;97265.72;88122;203;64005;-55
2023/08/10 00:16:08;;;;;;;0.50;0.50;;;;;;;13.96;100.00;97270.06;29394;249;64009;-55
2023/08/10 00:16:40;;;;;;;0.47;0.47;;;;;;;13.96;100.00;97273.59;29394;228;64009;-55
2023/08/10 00:17:12;;;;;;;0.50;0.50;;;;;;;13.97;100.00;97268.97;29395;255;63017;-55
2023/08/10 00:17:43;;;;;;;0.50;0.50;;;;;;;13.97;100.00;97269.75;29394;202;64009;-54
2023/08/10 00:18:14;;;;;;;0.50;0.50;;;;;;;13.97;100.00;97269.75;29395;285;63008;-55
2023/08/10 00:18:45;;;;;;;0.50;0.50;;;;;;;13.98;100.00;97265.13;29395;245;63005;-56
2023/08/10 00:19:20;;;;;;;0.50;0.50;;;;;;;13.99;100.00;97264.00;29395;256;63009;-55
2023/08/10 00:19:51;;;;;;;0.50;0.50;;;;;;;13.99;100.00;97267.53;29395;216;63001;-55
2023/08/10 00:20:22;;;;;;;0.50;0.50;;;;;;;14.00;100.00;97263.69;29395;213;63009;-55
2023/08/10 00:20:53;;;;;;;0.50;0.50;;;;;;;14.01;100.00;97265.31;29395;262;63005;-55
2023/08/10 00:21:25;;;;;;;0.40;0.40;;;;;;;14.00;100.00;97262.88;29395;227;63009;-55
2023/08/10 00:21:57;;;;;;;0.50;0.50;;;;;;;14.00;100.00;97262.88;29394;243;64009;-55
2023/08/10 00:22:30;;;;;;;0.50;0.50;;;;;;;13.99;100.00;97262.09;29395;207;63009;-56
2023/08/10 00:23:04;;;;;;;0.50;0.50;;;;;;;13.98;100.00;97267.84;29395;202;63011;-56
2023/08/10 00:23:36;;;;;;;0.50;0.50;;;;;;;13.97;100.00;97267.03;29395;202;63009;-63
2023/08/10 00:24:08;;;;;;;0.50;0.50;;;;;;;13.96;100.00;97265.41;29395;245;63004;-56
2023/08/10 00:24:39;;;;;;;0.50;0.50;;;;;;;13.94;100.00;97264.91;29395;231;63009;-56
2023/08/10 00:25:14;;;;;;;0.50;0.50;;;;;;;13.93;100.00;97268.75;29395;207;63004;-56
2023/08/10 00:25:46;;;;;;;0.50;0.50;;;;;;;13.92;100.00;97264.41;29394;206;64013;-56
2023/08/10 00:26:17;;;;;;;0.50;0.50;;;;;;;13.91;100.00;97260.06;29395;204;63005;-56
2023/08/10 00:26:48;;;;;;;0.50;0.50;;;;;;;13.90;100.00;97266.63;29395;351;63009;-64
2023/08/10 00:27:23;;;;;;;0.50;0.50;;;;;;;13.89;100.00;97262.28;29395;217;63005;-56
2023/08/10 00:27:55;;;;;;;0.50;0.50;;;;;;;13.89;100.00;97262.28;29395;226;63009;-56
2023/08/10 00:28:27;;;;;;;0.50;0.50;;;;;;;13.88;100.00;97257.94;29395;225;63005;-56
2023/08/10 00:29:01;;;;;;;0.50;0.50;;;;;;;13.88;100.00;97263.41;29395;252;63005;-56
2023/08/10 00:29:34;;;;;;;0.50;0.50;;;;;;;13.87;100.00;97259.06;29395;226;63007;-55
2023/08/10 00:30:07;;;;;;;0.40;0.40;;;;;;;13.86;100.00;97262.91;29395;234;63009;-55
2023/08/10 00:30:39;;;;;;;0.40;0.40;;;;;;;13.85;100.00;97266.75;29394;232;64009;-61
2023/08/10 00:31:10;;;;;;;0.50;0.50;;;;;;;13.85;100.00;97265.97;29395;347;63009;-56
2023/08/10 00:31:41;;;;;;;0.50;0.50;;;;;;;13.85;100.00;97263.22;29395;225;63004;-56
2023/08/10 00:32:14;;;;;;;0.50;0.50;;;;;;;13.84;100.00;97265.16;29395;270;63009;-56
2023/08/10 00:32:45;;;;;;;0.50;0.50;;;;;;;13.84;100.00;97259.69;29395;208;63004;-56
2023/08/10 00:33:17;;;;;;;0.50;0.50;;;;;;;13.83;100.00;97262.72;29395;324;63008;-56
2023/08/10 00:33:49;;;;;;;0.40;0.40;;;;;;;13.82;100.00;97259.19;29395;214;63005;-56
2023/08/10 00:34:21;;;;;;;0.50;0.50;;;;;;;13.85;100.00;97261.31;29395;292;63009;-56
2023/08/10 00:34:52;;;;;;;0.50;0.50;;;;;;;13.85;100.00;97258.59;29395;218;63005;-55
2023/08/10 00:35:24;;;;;;;0.40;0.40;;;;;;;13.85;100.00;97260.50;29394;240;64014;-56
2023/08/10 00:35:55;;;;;;;0.40;0.40;;;;;;;13.82;100.00;97256.47;29395;203;63005;-56
2023/08/10 00:36:27;;;;;;;0.50;0.50;;;;;;;13.81;100.00;97246.66;29395;267;63009;-55
2023/08/10 00:36:59;;;;;;;0.60;0.60;;;;;;;13.80;100.00;97258.69;29395;228;63005;-56
2023/08/10 00:37:31;;;;;;;0.40;0.40;;;;;;;13.79;100.00;97259.78;29395;216;63005;-55
2023/08/10 00:38:03;;;;;;;0.40;0.40;;;;;;;13.78;100.00;97260.09;29395;233;63004;-56
2023/08/10 00:38:37;;;;;;;0.62;0.62;;;;;;;13.77;100.00;97258.47;29395;209;63004;-56
2023/08/10 00:39:09;;;;;;;0.50;0.50;;;;;;;13.75;100.00;97261.50;29395;316;63004;-56
2023/08/10 00:39:40;;;;;;;0.40;0.40;;;;;;;13.74;100.00;97257.16;29394;394;64013;-56
2023/08/10 00:40:12;;;;;;;0.40;0.40;;;;;;;13.72;100.00;97256.66;29395;233;63004;-55
2023/08/10 00:40:44;;;;;;;0.40;0.40;;;;;;;13.70;100.00;97258.88;29395;226;63008;-55
2023/08/10 00:41:15;;;;;;;0.50;0.50;;;;;;;13.70;100.00;97264.34;29395;263;63004;-55
2023/08/10 00:41:48;;;;;;;0.50;0.50;;;;;;;13.69;100.00;97260.00;29394;314;64014;-56
2023/08/10 00:42:20;;;;;;;0.45;0.45;;;;;;;13.68;100.00;97258.38;29395;307;63008;-56
2023/08/10 00:42:53;;;;;;;0.50;0.50;;;;;;;13.66;100.00;97258.69;29395;219;63016;-55
2023/08/10 00:43:25;;;;;;;0.40;0.40;;;;;;;13.65;100.00;97256.25;29395;216;63000;-56
2023/08/10 00:43:56;;;;;;;0.43;0.43;;;;;;;13.63;100.00;97258.47;29395;224;63021;-57
2023/08/10 00:44:28;;;;;;;0.40;0.40;;;;;;;13.63;100.00;97261.19;29395;252;63002;-56
2023/08/10 00:44:59;;;;;;;0.50;0.50;;;;;;;13.62;100.00;97262.31;29395;225;63009;-56
2023/08/10 00:45:32;;;;;;;0.50;0.50;;;;;;;13.61;100.00;97255.25;29395;219;63005;-55
2023/08/10 00:46:05;;;;;;;0.50;0.50;;;;;;;13.60;100.00;97259.09;29395;255;63009;-56
2023/08/10 00:46:37;;;;;;;0.60;0.60;;;;;;;13.60;100.00;97264.53;29394;213;64009;-56
2023/08/10 00:47:10;;;;;;;0.40;0.40;;;;;;;13.61;100.00;97260.69;29395;292;63009;-56
2023/08/10 00:47:41;;;;;;;0.50;0.50;;;;;;;13.58;100.00;97261.31;29395;220;63004;-56
2023/08/10 00:48:16;;;;;;;0.50;0.50;;;;;;;13.56;100.00;97258.88;29395;225;63008;-55
2023/08/10 00:48:48;;;;;;;0.50;0.50;;;;;;;13.56;100.00;97258.88;29395;227;63004;-56
2023/08/10 00:49:19;;;;;;;0.60;0.60;;;;;;;13.54;100.00;97257.56;29395;211;63009;-56
2023/08/10 00:49:51;;;;;;;0.40;0.40;;;;;;;13.51;100.00;97261.72;29394;197;64005;-55
2023/08/10 00:50:24;;;;;;;0.50;0.50;;;;;;;13.51;100.00;97263.66;29395;236;63009;-55
2023/08/10 00:50:56;;;;;;;0.40;0.40;;;;;;;13.50;100.00;97259.31;29395;258;63005;-55
2023/08/10 00:51:27;;;;;;;0.40;0.40;;;;;;;13.49;100.00;97260.41;29395;222;63017;-56
2023/08/10 00:52:00;;;;;;;0.40;0.40;;;;;;;13.49;100.00;97263.94;29394;197;64009;-57
2023/08/10 00:52:33;;;;;;;0.45;0.45;;;;;;;13.48;100.00;97256.06;29395;196;63015;-65
2023/08/10 00:53:04;;;;;;;0.50;0.50;;;;;;;13.49;100.00;97257.69;29395;224;63004;-55
2023/08/10 00:53:36;;;;;;;0.40;0.40;;;;;;;13.47;100.00;97260.72;29395;197;63009;-55
2023/08/10 00:54:08;;;;;;;0.50;0.50;;;;;;;13.46;100.00;97271.91;29395;250;63004;-56
2023/08/10 00:54:39;;;;;;;0.50;0.50;;;;;;;13.47;100.00;97259.91;29395;198;63009;-57
2023/08/10 00:55:11;;;;;;;0.40;0.40;;;;;;;13.46;100.00;97261.00;29395;229;63004;-55
2023/08/10 00:55:45;;;;;;;0.40;0.40;;;;;;;13.44;100.00;97260.50;29395;233;63008;-55
2023/08/10 00:56:17;;;;;;;0.50;0.50;;;;;;;13.44;100.00;97260.50;29395;224;63004;-56
2023/08/10 00:56:50;;;;;;;0.47;0.47;;;;;;;13.43;100.00;97261.62;29395;204;63009;-65
2023/08/10 00:57:22;;;;;;;0.47;0.47;;;;;;;13.43;100.00;97265.16;29394;234;64009;-56
2023/08/10 00:57:54;;;;;;;0.50;0.50;;;;;;;13.43;100.00;97265.16;29395;215;63009;-56
2023/08/10 00:58:26;;;;;;;0.50;0.50;;;;;;;13.44;100.00;97268.69;29395;251;63018;-55
2023/08/10 00:58:58;;;;;;;0.40;0.40;;;;;;;13.43;100.00;97264.34;29395;273;63009;-55
2023/08/10 00:59:31;;;;;;;0.40;0.40;;;;;;;13.45;100.00;97259.41;29395;225;63005;-55
2023/08/10 01:00:05;;;;;;;0.50;0.50;;;;;;;13.44;100.00;97260.50;29395;210;63009;-55
2023/08/10 01:00:37;;;;;;;0.40;0.40;;;;;;;13.41;100.00;97262.72;29394;232;64009;-54
2023/08/10 01:01:09;;;;;;;0.50;0.50;;;;;;;13.41;100.00;97262.72;29395;213;63014;-55
2023/08/10 01:01:40;;;;;;;0.50;0.50;;;;;;;13.41;100.00;97265.44;29394;202;64009;-55
2023/08/10 01:02:11;;;;;;;0.50;0.50;;;;;;;13.40;100.00;97263.84;29395;270;63017;-55
2023/08/10 01:02:43;;;;;;;0.43;0.43;;;;;;;13.38;100.00;97266.06;29395;284;63004;-55
2023/08/10 01:03:15;;;;;;;0.50;0.50;;;;;;;13.37;100.00;97267.16;29395;263;63009;-55
2023/08/10 01:03:47;;;;;;;0.50;0.50;;;;;;;13.36;100.00;97264.72;29394;249;64005;-55
2023/08/10 01:04:18;;;;;;;0.50;0.50;;;;;;;13.34;100.00;97267.75;29395;214;63009;-55
2023/08/10 01:04:49;;;;;;;0.40;0.40;;;;;;;13.34;100.00;97261.50;29395;198;63005;-55
2023/08/10 01:05:21;;;;;;;0.50;0.50;;;;;;;13.33;100.00;97262.59;29395;267;63009;-55
2023/08/10 01:06:10;;;;;;;0.50;0.50;;;;;;;13.31;100.00;97262.09;29395;206;63009;-55
2023/08/10 01:06:59;;;;;;;0.40;0.40;;;;;;;13.28;100.00;97265.44;29394;231;64013;-55
2023/08/10 01:08:03;;;;;;;0.50;0.50;;;;;;;13.26;100.00;97254.81;29395;285;63004;-55
2023/08/10 01:09:03;;;;;;;0.40;0.40;;;;;;;13.26;100.00;97262.19;29394;212;64013;-56
2023/08/10 01:09:45;;;;;;;0.40;0.40;;;;;;;13.24;100.00;97261.69;29395;235;63004;-55
2023/08/10 01:10:34;;;;;;;0.50;0.50;;;;;;;13.21;100.00;97257.63;29395;222;63008;-55
2023/08/10 01:11:39;;;;;;;0.50;0.50;;;;;;;13.20;100.00;97261.47;29395;343;63011;-63
2023/08/10 01:12:36;;;;;;;0.40;0.40;;;;;;;13.21;100.00;97259.56;29395;202;63009;-56
2023/08/10 01:13:25;;;;;;;0.50;0.50;;;;;;;13.22;100.00;97255.72;29394;211;64005;-63
2023/08/10 01:14:25;;;;;;;0.50;0.50;;;;;;;13.24;100.00;97256.22;29394;375;64013;-56
2023/08/10 01:15:39;;;;;;;0.50;0.50;;;;;;;13.25;100.00;97263.31;29395;199;63004;-55
2023/08/10 01:16:12;;;;;;;0.43;0.43;;;;;;;13.28;100.00;97263.50;29394;270;64013;-55
2023/08/10 01:16:44;;;;;;;0.50;0.50;;;;;;;13.30;100.00;97260.47;29395;242;63004;-55
2023/08/10 01:17:33;;;;;;;0.50;0.50;;;;;;;13.30;100.00;97261.28;29395;215;63009;-55
2023/08/10 01:18:11;;;;;;;0.50;0.50;;;;;;;13.29;100.00;97262.41;29395;282;63004;-55
2023/08/10 01:18:43;;;;;;;0.40;0.40;;;;;;;13.26;100.00;97254.81;29395;219;63009;-56
2023/08/10 01:19:32;;;;;;;0.50;0.50;;;;;;;13.26;100.00;97260.28;29394;209;64009;-56
2023/08/10 01:20:08;;;;;;;0.40;0.40;;;;;;;13.25;100.00;97263.31;29394;203;64013;-55
2023/08/10 01:20:43;;;;;;;0.50;0.50;;;;;;;13.22;100.00;97261.97;29395;236;63005;-55
2023/08/10 01:21:43;;;;;;;0.50;0.50;;;;;;;13.21;100.00;97260.38;29395;206;63020;-55
2023/08/10 01:23:02;;;;;;;0.50;0.50;;;;;;;13.17;100.00;97267.53;29395;270;63014;-55
2023/08/10 01:23:38;;;;;;;0.62;0.62;;;;;;;13.16;100.00;97257.75;29394;221;64009;-56
2023/08/10 01:24:20;;;;;;;0.50;0.50;;;;;;;13.17;100.00;97259.34;29395;307;63009;-55
2023/08/10 01:25:00;;;;;;;0.50;0.50;;;;;;;13.17;100.00;97269.47;29395;210;63004;-55
2023/08/10 01:25:33;;;;;;;0.50;0.50;;;;;;;13.19;100.00;97267.22;29417;228;63008;-55
2023/08/10 01:26:07;;;;;;;0.50;0.50;;;;;;;13.17;100.00;97256.63;29395;197;63001;-64
2023/08/10 01:26:39;;;;;;;0.50;0.50;;;;;;;13.15;100.00;97258.84;29395;232;63009;-56
2023/08/10 01:27:12;;;;;;;0.50;0.50;;;;;;;13.15;100.00;97261.56;29394;280;64009;-56
2023/08/10 01:27:45;;;;;;;0.50;0.50;;;;;;;13.13;100.00;97274.66;29395;208;63009;-55
2023/08/10 01:28:17;;;;;;;0.50;0.50;;;;;;;13.14;100.00;97261.84;29395;241;63005;-55
2023/08/10 01:28:48;;;;;;;0.50;0.50;;;;;;;13.13;100.00;97271.94;29395;209;63009;-55
2023/08/10 01:29:21;;;;;;;0.40;0.40;;;;;;;13.13;100.00;97271.94;29395;298;63005;-55
2023/08/10 01:29:53;;;;;;;0.50;0.50;;;;;;;13.14;100.00;97268.12;29395;246;63014;-55
2023/08/10 01:30:26;;;;;;;0.50;0.50;;;;;;;13.15;100.00;97271.66;29395;222;63000;-55
2023/08/10 01:30:58;;;;;;;1.30;1.30;;;;;;;13.16;100.00;97263.22;29395;220;63009;-55
2023/08/10 01:31:30;;;;;;;0.50;0.50;;;;;;;13.18;100.00;97268.31;29395;199;63004;-56
2023/08/10 01:32:11;;;;;;;0.50;0.50;;;;;;;13.19;100.00;97268.03;29395;202;63009;-55
2023/08/10 01:32:44;;;;;;;0.50;0.50;;;;;;;13.19;100.00;97259.84;29416;215;64008;-63
2023/08/10 01:33:15;;;;;;;0.50;0.50;;;;;;;13.18;100.00;97258.22;29395;202;63008;-65
2023/08/10 01:33:47;;;;;;;0.50;0.50;;;;;;;13.20;100.00;97261.47;29394;238;64009;-65
2023/08/10 01:34:22;;;;;;;0.40;0.40;;;;;;;13.19;99.91;97268.03;29395;204;63009;-55
2023/08/10 01:34:54;;;;;;;0.50;0.50;;;;;;;13.18;99.80;97266.41;29395;219;63005;-55
2023/08/10 01:35:26;;;;;;;0.50;0.50;;;;;;;13.17;99.67;97259.34;29395;219;63009;-55
2023/08/10 01:37:06;;;;;;;0.50;0.50;;;;;;;13.20;99.68;97258.75;87952;219;137000;-54
2023/08/10 01:37:38;;;;;;;0.50;0.50;;;;;;;13.19;99.80;97265.31;29394;218;64009;-55
2023/08/10 01:38:09;;;;;;;0.50;0.50;;;;;;;13.18;99.51;97265.59;29394;217;64009;-65
2023/08/10 01:38:40;;;;;;;0.40;0.40;;;;;;;13.16;99.52;97255.03;29395;236;63009;-55
2023/08/10 01:39:12;;;;;;;0.50;0.50;;;;;;;13.16;99.75;97260.47;29395;198;63000;-55
2023/08/10 01:39:43;;;;;;;0.50;0.50;;;;;;;13.15;100.00;97269.72;29395;211;63009;-55
2023/08/10 01:40:16;;;;;;;0.50;0.50;;;;;;;13.14;99.91;97257.22;29395;221;63004;-64
2023/08/10 01:40:47;;;;;;;0.50;0.50;;;;;;;13.13;100.00;97261.06;29395;202;63009;-55
2023/08/10 01:41:19;;;;;;;0.50;0.50;;;;;;;13.13;100.00;97271.94;29395;227;63010;-65
2023/08/10 01:41:53;;;;;;;3.08;2.40;;;;;;;13.14;100.00;97262.66;29395;210;63009;-62
2023/08/10 01:42:25;;;;;;;0.40;0.40;;;;;;;13.14;100.00;97265.37;29395;215;63005;-64
2023/08/10 01:42:57;;;;;;;0.40;0.40;;;;;;;13.14;100.00;97265.37;29394;250;64003;-64
2023/08/10 01:43:28;;;;;;;0.40;0.40;;;;;;;13.12;100.00;97264.87;29395;239;63007;-65
2023/08/10 01:44:01;;;;;;;0.40;0.40;;;;;;;13.13;100.00;97263.78;29395;250;63009;-55
2023/08/10 01:44:32;;;;;;;0.45;0.45;;;;;;;13.12;100.00;97270.34;29395;221;63005;-64
2023/08/10 01:45:05;;;;;;;0.40;0.40;;;;;;;13.12;100.00;97261.34;29395;222;63009;-65
2023/08/10 01:45:36;;;;;;;0.43;0.43;;;;;;;13.12;100.00;97266.78;29395;236;63004;-64
2023/08/10 01:46:14;;;;;;;0.50;0.50;;;;;;;13.12;100.00;97264.06;29395;202;63017;-56
2023/08/10 01:46:48;;;;;;;0.40;0.40;;;;;;;13.13;100.00;97265.69;29395;198;63004;-55
2023/08/10 01:48:08;;;;;;;0.50;0.50;;;;;;;13.13;100.00;97260.25;29395;224;63008;-55
2023/08/10 01:48:43;;;;;;;0.50;0.50;;;;;;;13.11;100.00;97257.81;29394;214;64009;-66
2023/08/10 01:49:17;;;;;;;0.50;0.50;;;;;;;13.11;100.00;97263.25;29394;231;64009;-64
2023/08/10 01:49:54;;;;;;;0.50;0.50;;;;;;;13.12;100.00;97256.72;29395;229;63001;-65
2023/08/10 01:50:32;;;;;;;0.50;0.50;;;;;;;13.12;100.00;97258.63;29395;197;63009;-65
2023/08/10 02:02:39;;;;;;;0.50;0.50;;;;;;;12.95;100.00;97276.31;88122;218;64005;-54
2023/08/10 02:03:13;;;;;;;0.50;0.50;;;;;;;12.95;100.00;97280.97;29394;203;64009;-56
2023/08/10 02:03:45;;;;;;;0.50;0.50;;;;;;;12.95;100.00;97276.31;29394;251;64004;-64
2023/08/10 02:04:16;;;;;;;0.50;0.50;;;;;;;12.96;100.00;97274.41;29394;231;64013;-55
2023/08/10 02:04:47;;;;;;;0.50;0.50;;;;;;;12.97;100.00;97274.13;29395;206;63004;-63
2023/08/10 02:05:18;;;;;;;0.50;0.50;;;;;;;12.98;100.00;97274.94;29395;218;63009;-54
2023/08/10 02:05:50;;;;;;;0.50;0.50;;;;;;;12.98;100.00;97277.66;29395;235;63004;-54
2023/08/10 02:06:21;;;;;;;0.50;0.50;;;;;;;12.96;100.00;97271.69;29395;239;63008;-54
2023/08/10 02:06:55;;;;;;;0.50;0.50;;;;;;;12.97;100.00;97273.31;29395;240;63005;-54
2023/08/10 02:07:27;;;;;;;0.50;0.50;;;;;;;12.97;100.00;97276.03;29395;200;63009;-55
2023/08/10 02:07:58;;;;;;;0.50;0.50;;;;;;;12.97;100.00;97279.56;29395;245;63005;-56
2023/08/10 02:08:29;;;;;;;0.50;0.50;;;;;;;12.98;100.00;97275.72;29395;229;63009;-66
2023/08/10 02:09:01;;;;;;;0.50;0.50;;;;;;;12.99;100.00;97274.63;29395;255;63005;-55
2023/08/10 02:09:32;;;;;;;0.43;0.43;;;;;;;12.99;100.00;97276.53;29394;202;64013;-55
2023/08/10 02:10:05;;;;;;;0.50;0.50;;;;;;;12.99;100.00;97271.09;29394;202;64009;-56
2023/08/10 02:10:36;;;;;;;0.50;0.50;;;;;;;12.98;100.00;97272.19;29394;211;64013;-56
2023/08/10 02:11:08;;;;;;;0.50;0.50;;;;;;;12.97;100.00;97273.31;29395;232;63004;-56
2023/08/10 02:11:43;;;;;;;0.50;0.50;;;;;;;12.97;100.00;97274.13;29394;205;64013;-55
2023/08/10 02:12:14;;;;;;;0.50;0.50;;;;;;;12.97;100.00;97278.75;29395;242;63004;-56
2023/08/10 02:12:46;;;;;;;0.40;0.40;;;;;;;12.96;100.00;97274.41;29395;228;63009;-55
2023/08/10 02:13:18;;;;;;;0.50;0.50;;;;;;;12.95;100.00;97272.78;29395;226;63004;-64
2023/08/10 02:13:49;;;;;;;0.50;0.50;;;;;;;12.96;100.00;97275.22;29395;218;63008;-56
2023/08/10 02:14:21;;;;;;;0.50;0.50;;;;;;;12.96;100.00;97271.69;29395;223;63005;-65
2023/08/10 02:14:52;;;;;;;0.50;0.50;;;;;;;12.97;100.00;97274.13;29395;224;63009;-65
2023/08/10 02:15:23;;;;;;;0.50;0.50;;;;;;;12.98;100.00;97273.00;29395;218;63005;-54
2023/08/10 02:15:54;;;;;;;0.50;0.50;;;;;;;12.98;100.00;97274.94;29394;273;64013;-65
2023/08/10 02:16:28;;;;;;;0.40;0.40;;;;;;;12.97;100.00;97267.84;29395;222;63005;-55
2023/08/10 02:17:00;;;;;;;0.50;0.50;;;;;;;12.96;100.00;97272.50;29395;308;63019;-55
2023/08/10 02:17:35;;;;;;;0.50;0.50;;;;;;;12.97;100.00;97274.13;29395;205;63005;-64
2023/08/10 02:18:10;;;;;;;0.50;0.50;;;;;;;12.95;100.00;97270.88;29395;213;63009;-65
2023/08/10 02:18:45;;;;;;;0.50;0.50;;;;;;;12.96;100.00;97268.97;29394;229;64004;-64
2023/08/10 02:19:16;;;;;;;0.50;0.50;;;;;;;12.94;100.00;97274.72;29394;271;64013;-66
2023/08/10 02:19:48;;;;;;;0.50;0.50;;;;;;;12.96;100.00;97277.12;29395;231;63004;-55
2023/08/10 02:20:19;;;;;;;0.40;0.40;;;;;;;12.96;100.00;97271.69;29395;260;63009;-65
2023/08/10 02:20:50;;;;;;;0.50;0.50;;;;;;;12.94;100.00;97263.00;29395;254;63004;-54
2023/08/10 02:21:26;;;;;;;0.50;0.50;;;;;;;12.93;100.00;97273.09;29394;251;64013;-63
2023/08/10 02:21:58;;;;;;;0.50;0.50;;;;;;;12.95;100.00;97275.53;29395;229;63001;-55
2023/08/10 02:22:29;;;;;;;0.40;0.40;;;;;;;12.97;100.00;97273.31;29395;230;63009;-55
2023/08/10 02:23:00;;;;;;;0.50;0.50;;;;;;;12.97;100.00;97276.03;29395;211;63005;-64
2023/08/10 02:23:32;;;;;;;0.40;0.40;;;;;;;12.99;100.00;97276.53;29395;225;63009;-55
2023/08/10 02:24:04;;;;;;;0.50;0.50;;;;;;;12.99;100.00;97269.19;29394;216;64009;-54
2023/08/10 02:24:38;;;;;;;0.50;0.50;;;;;;;12.99;100.00;97273.81;29395;383;63009;-55
2023/08/10 02:25:10;;;;;;;0.40;0.40;;;;;;;12.98;100.00;97274.94;29395;205;63004;-55
2023/08/10 02:25:41;;;;;;;0.43;0.43;;;;;;;12.98;100.00;97273.00;29395;197;63009;-55
2023/08/10 02:26:13;;;;;;;0.50;0.50;;;;;;;12.99;100.00;97271.09;29394;197;64009;-65
2023/08/10 02:26:44;;;;;;;0.50;0.50;;;;;;;12.99;100.00;97271.91;29395;241;63009;-65
2023/08/10 02:27:15;;;;;;;0.50;0.50;;;;;;;12.99;100.00;97266.47;29395;204;63004;-55
2023/08/10 02:27:50;;;;;;;0.40;0.40;;;;;;;12.99;100.00;97268.38;29395;203;63008;-55
2023/08/10 02:28:21;;;;;;;0.50;0.50;;;;;;;12.99;100.00;97271.09;29395;245;63004;-55
2023/08/10 02:28:52;;;;;;;0.50;0.50;;;;;;;12.98;100.00;97270.28;29394;211;64013;-55
2023/08/10 02:29:24;;;;;;;0.50;0.50;;;;;;;12.98;100.00;97266.75;29395;197;63005;-63
2023/08/10 02:29:57;;;;;;;0.50;0.50;;;;;;;12.96;100.00;97260.78;29395;262;63009;-55
2023/08/10 02:30:29;;;;;;;0.40;0.40;;;;;;;12.95;100.00;97264.63;29394;199;64009;-54
2023/08/10 02:31:01;;;;;;;0.40;0.40;;;;;;;12.93;100.00;97267.66;29395;269;63009;-55
2023/08/10 02:31:33;;;;;;;0.50;0.50;;;;;;;12.91;100.00;97264.41;29395;275;63005;-54
2023/08/10 02:32:04;;;;;;;0.50;0.50;;;;;;;12.89;100.00;97272.06;29394;237;64013;-55
2023/08/10 02:32:36;;;;;;;0.50;0.50;;;;;;;12.89;100.00;97265.81;29394;224;64009;-55
2023/08/10 02:33:08;;;;;;;0.40;0.40;;;;;;;12.87;100.00;97268.84;29395;250;63017;-64
2023/08/10 02:33:40;;;;;;;0.43;0.43;;;;;;;12.87;100.00;97268.03;29395;206;63004;-54
2023/08/10 02:34:12;;;;;;;0.50;0.50;;;;;;;12.86;100.00;97266.41;29395;212;63009;-54
2023/08/10 02:34:43;;;;;;;0.50;0.50;;;;;;;12.85;100.00;97262.88;29395;266;63004;-54
2023/08/10 02:35:15;;;;;;;0.50;0.50;;;;;;;12.85;100.00;97267.50;29395;232;63008;-54
2023/08/10 02:35:46;;;;;;;0.50;0.50;;;;;;;12.86;100.00;97269.12;29395;237;63000;-62
2023/08/10 02:36:21;;;;;;;0.50;0.50;;;;;;;12.86;100.00;97272.66;29394;198;64014;-56
2023/08/10 02:36:53;;;;;;;0.40;0.40;;;;;;;12.87;100.00;97276.19;29394;233;64009;-54
2023/08/10 02:37:26;;;;;;;0.50;0.50;;;;;;;12.87;100.00;97265.31;29395;219;63009;-55
2023/08/10 02:38:01;;;;;;;0.40;0.40;;;;;;;12.86;100.00;97271.84;29395;218;63005;-65
2023/08/10 02:38:36;;;;;;;0.43;0.43;;;;;;;12.87;100.00;97268.03;29394;230;64013;-65
2023/08/10 02:39:08;;;;;;;0.40;0.40;;;;;;;12.88;100.00;97270.44;29395;196;63005;-55
2023/08/10 02:39:42;;;;;;;0.50;0.50;;;;;;;12.90;100.00;97278.31;29395;241;63009;-64
2023/08/10 02:40:14;;;;;;;0.50;0.50;;;;;;;12.90;100.00;97273.69;29395;228;63004;-64
2023/08/10 02:40:46;;;;;;;0.40;0.40;;;;;;;12.91;100.00;97269.03;29395;196;63009;-55
2023/08/10 02:41:17;;;;;;;0.40;0.40;;;;;;;12.91;100.00;97274.50;29395;220;63017;-64
2023/08/10 02:41:49;;;;;;;0.40;0.40;;;;;;;12.93;100.00;97272.28;29395;271;63009;-55
2023/08/10 02:42:21;;;;;;;0.40;0.40;;;;;;;12.93;100.00;97275.00;29394;218;64009;-64
2023/08/10 02:42:52;;;;;;;0.43;0.43;;;;;;;12.93;100.00;97272.28;29395;321;63008;-65
2023/08/10 02:43:23;;;;;;;0.40;0.40;;;;;;;12.93;100.00;97277.72;29394;227;64008;-65
2023/08/10 02:43:56;;;;;;;0.50;0.50;;;;;;;12.92;100.00;97271.47;29395;242;63009;-65
2023/08/10 02:44:28;;;;;;;0.50;0.50;;;;;;;12.90;100.00;97270.16;29395;218;63012;-54
2023/08/10 02:44:59;;;;;;;0.40;0.40;;;;;;;12.90;100.00;97275.59;29395;215;63009;-56
2023/08/10 02:45:31;;;;;;;0.40;0.40;;;;;;;12.88;100.00;97273.19;29395;206;63005;-54
2023/08/10 02:46:03;;;;;;;0.40;0.40;;;;;;;12.87;100.00;97271.56;29395;259;63009;-55
2023/08/10 02:46:35;;;;;;;0.40;0.40;;;;;;;12.86;100.00;97280.84;29395;306;63005;-62
2023/08/10 02:47:06;;;;;;;0.40;0.40;;;;;;;12.84;100.00;97271.34;29395;218;63009;-55
2023/08/10 02:47:37;;;;;;;0.50;0.50;;;;;;;12.84;100.00;97271.34;29395;218;63005;-64
2023/08/10 02:48:09;;;;;;;0.50;0.50;;;;;;;12.83;100.00;97275.97;29394;346;64013;-54
2023/08/10 02:48:40;;;;;;;0.50;0.50;;;;;;;12.82;100.00;97274.38;29394;196;64009;-54
2023/08/10 02:49:12;;;;;;;0.40;0.40;;;;;;;12.80;100.00;97268.44;29395;246;63009;-55
2023/08/10 02:49:44;;;;;;;0.47;0.47;;;;;;;12.80;100.00;97268.44;29394;214;64004;-54
2023/08/10 02:50:16;;;;;;;0.40;0.40;;;;;;;12.81;100.00;97270.06;29395;214;63014;-54
2023/08/10 02:50:48;;;;;;;0.50;0.50;;;;;;;12.80;100.00;97273.06;29395;225;63004;-54
2023/08/10 02:51:21;;;;;;;0.40;0.40;;;;;;;12.80;100.00;97278.50;29395;202;63009;-55
2023/08/10 02:51:54;;;;;;;0.40;0.40;;;;;;;12.78;100.00;97275.28;29394;207;64009;-65
2023/08/10 02:52:25;;;;;;;0.50;0.50;;;;;;;12.79;100.00;97276.91;29395;220;63009;-63
2023/08/10 02:52:56;;;;;;;0.50;0.50;;;;;;;12.79;100.00;97266.00;29395;210;63005;-54
2023/08/10 02:53:31;;;;;;;0.40;0.40;;;;;;;12.79;100.00;97276.91;29395;255;63009;-55
2023/08/10 02:54:02;;;;;;;0.40;0.40;;;;;;;12.81;100.00;97274.69;29395;253;63005;-55
2023/08/10 02:54:33;;;;;;;0.50;0.50;;;;;;;12.81;100.00;97272.78;29395;247;63009;-64
2023/08/10 02:55:06;;;;;;;0.40;0.40;;;;;;;12.83;100.00;97273.25;29395;231;63005;-64
2023/08/10 02:55:40;;;;;;;0.50;0.50;;;;;;;12.83;100.00;97270.53;29394;203;64013;-55
2023/08/10 02:56:12;;;;;;;0.40;0.40;;;;;;;12.85;100.00;97272.97;29395;269;63004;-56
2023/08/10 02:56:43;;;;;;;0.40;0.40;;;;;;;12.84;100.00;97271.34;29395;242;63009;-55
2023/08/10 02:57:16;;;;;;;0.40;0.40;;;;;;;12.85;100.00;97275.69;29395;243;63004;-54
2023/08/10 02:57:47;;;;;;;0.50;0.50;;;;;;;12.84;100.00;97269.44;29394;220;64013;-65
2023/08/10 02:58:24;;;;;;;0.43;0.43;;;;;;;12.85;100.00;97278.41;29394;237;64008;-65
2023/08/10 02:58:58;;;;;;;0.40;0.40;;;;;;;12.84;100.00;97269.44;29395;255;63015;-55
2023/08/10 02:59:30;;;;;;;0.50;0.50;;;;;;;12.86;100.00;97274.56;29395;222;63005;-54
2023/08/10 03:00:06;;;;;;;0.50;0.50;;;;;;;12.90;100.00;97272.87;29395;247;63009;-55
2023/08/10 03:00:38;;;;;;;0.50;0.50;;;;;;;12.89;100.00;97271.25;29395;215;63005;-64
2023/08/10 03:01:10;;;;;;;0.50;0.50;;;;;;;12.89;100.00;97273.97;29395;202;63009;-64
2023/08/10 03:01:41;;;;;;;0.50;0.50;;;;;;;12.89;100.00;97277.50;29395;203;63005;-54
2023/08/10 03:02:18;;;;;;;0.50;0.50;;;;;;;12.90;100.00;97273.69;29395;216;63009;-53
2023/08/10 03:02:50;;;;;;;0.40;0.40;;;;;;;12.87;100.00;97279.72;29394;304;64009;-53
2023/08/10 03:03:22;;;;;;;0.40;0.40;;;;;;;12.86;100.00;97271.84;29395;235;63009;-64
2023/08/10 03:03:53;;;;;;;0.50;0.50;;;;;;;12.84;100.00;97274.06;29395;215;63004;-55